sensor_id;sensor_type;location;lat;lon;timestamp;P1;durP1;ratioP1;P2;durP2;ratioP2
679;SDS011;322;48.846;9.230;2023-12-29T00:02:09;8.93;;;2.07;;
679;SDS011;322;48.846;9.230;2023-12-29T00:04:37;7.83;;;2.30;;
679;SDS011;322;48.846;9.230;2023-12-29T00:07:05;9.40;;;2.40;;
679;SDS011;322;48.846;9.230;2023-12-29T00:09:33;6.80;;;1.70;;
679;SDS011;322;48.846;9.230;2023-12-29T00:12:07;7.07;;;1.80;;
679;SDS011;322;48.846;9.230;2023-12-29T00:14:36;7.60;;;2.13;;
679;SDS011;322;48.846;9.230;2023-12-29T00:17:04;8.00;;;2.40;;
679;SDS011;322;48.846;9.230;2023-12-29T00:19:34;7.23;;;2.13;;
679;SDS011;322;48.846;9.230;2023-12-29T00:22:02;7.80;;;2.50;;
679;SDS011;322;48.846;9.230;2023-12-29T00:24:31;9.57;;;2.40;;
679;SDS011;322;48.846;9.230;2023-12-29T00:26:59;9.23;;;3.17;;
679;SDS011;322;48.846;9.230;2023-12-29T00:29:27;8.10;;;2.30;;
679;SDS011;322;48.846;9.230;2023-12-29T00:31:59;8.40;;;2.73;;
679;SDS011;322;48.846;9.230;2023-12-29T00:34:29;8.07;;;2.43;;
679;SDS011;322;48.846;9.230;2023-12-29T00:36:59;7.77;;;2.13;;
679;SDS011;322;48.846;9.230;2023-12-29T00:39:27;7.23;;;2.03;;
679;SDS011;322;48.846;9.230;2023-12-29T00:41:57;8.70;;;2.60;;
679;SDS011;322;48.846;9.230;2023-12-29T00:44:25;7.43;;;1.83;;
679;SDS011;322;48.846;9.230;2023-12-29T00:46:53;8.00;;;2.00;;
679;SDS011;322;48.846;9.230;2023-12-29T00:49:21;7.67;;;2.00;;
679;SDS011;322;48.846;9.230;2023-12-29T00:51:49;7.43;;;2.10;;
679;SDS011;322;48.846;9.230;2023-12-29T00:54:19;7.80;;;2.47;;
679;SDS011;322;48.846;9.230;2023-12-29T00:56:50;8.13;;;1.90;;
679;SDS011;322;48.846;9.230;2023-12-29T00:59:19;8.60;;;2.47;;
679;SDS011;322;48.846;9.230;2023-12-29T01:01:47;8.33;;;2.07;;
679;SDS011;322;48.846;9.230;2023-12-29T01:04:15;8.93;;;2.13;;
679;SDS011;322;48.846;9.230;2023-12-29T01:06:43;11.40;;;2.60;;
679;SDS011;322;48.846;9.230;2023-12-29T01:09:11;7.93;;;2.00;;
679;SDS011;322;48.846;9.230;2023-12-29T01:11:41;6.97;;;1.77;;
679;SDS011;322;48.846;9.230;2023-12-29T01:14:09;7.47;;;2.33;;
679;SDS011;322;48.846;9.230;2023-12-29T01:16:37;8.13;;;2.00;;
679;SDS011;322;48.846;9.230;2023-12-29T01:19:04;8.10;;;2.37;;
679;SDS011;322;48.846;9.230;2023-12-29T01:21:32;7.40;;;2.10;;
679;SDS011;322;48.846;9.230;2023-12-29T01:24:01;8.17;;;2.57;;
679;SDS011;322;48.846;9.230;2023-12-29T01:26:33;8.90;;;2.50;;
679;SDS011;322;48.846;9.230;2023-12-29T01:29:05;6.50;;;1.73;;
679;SDS011;322;48.846;9.230;2023-12-29T01:31:36;7.10;;;2.13;;
679;SDS011;322;48.846;9.230;2023-12-29T01:34:04;9.07;;;2.53;;
679;SDS011;322;48.846;9.230;2023-12-29T01:36:33;10.13;;;2.27;;
679;SDS011;322;48.846;9.230;2023-12-29T01:39:03;7.80;;;2.43;;
679;SDS011;322;48.846;9.230;2023-12-29T01:41:31;7.97;;;2.23;;
679;SDS011;322;48.846;9.230;2023-12-29T01:44:15;7.10;;;1.60;;
679;SDS011;322;48.846;9.230;2023-12-29T01:46:49;7.20;;;2.10;;
679;SDS011;322;48.846;9.230;2023-12-29T01:49:18;8.30;;;2.20;;
679;SDS011;322;48.846;9.230;2023-12-29T01:51:48;8.37;;;2.60;;
679;SDS011;322;48.846;9.230;2023-12-29T01:54:18;7.93;;;2.40;;
679;SDS011;322;48.846;9.230;2023-12-29T01:56:53;8.23;;;2.67;;
679;SDS011;322;48.846;9.230;2023-12-29T01:59:25;7.77;;;2.37;;
679;SDS011;322;48.846;9.230;2023-12-29T02:01:57;7.70;;;2.40;;
679;SDS011;322;48.846;9.230;2023-12-29T02:04:26;7.80;;;2.60;;
679;SDS011;322;48.846;9.230;2023-12-29T02:06:55;7.77;;;2.50;;
679;SDS011;322;48.846;9.230;2023-12-29T02:09:25;7.60;;;3.00;;
679;SDS011;322;48.846;9.230;2023-12-29T02:11:54;8.07;;;2.57;;
679;SDS011;322;48.846;9.230;2023-12-29T02:14:22;7.97;;;2.43;;
679;SDS011;322;48.846;9.230;2023-12-29T02:16:52;7.23;;;2.30;;
679;SDS011;322;48.846;9.230;2023-12-29T02:19:31;8.20;;;2.97;;
679;SDS011;322;48.846;9.230;2023-12-29T02:22:05;8.53;;;2.90;;
679;SDS011;322;48.846;9.230;2023-12-29T02:24:34;7.53;;;2.37;;
679;SDS011;322;48.846;9.230;2023-12-29T02:27:07;6.93;;;1.80;;
679;SDS011;322;48.846;9.230;2023-12-29T02:29:43;7.30;;;2.20;;
679;SDS011;322;48.846;9.230;2023-12-29T02:32:16;7.50;;;2.20;;
679;SDS011;322;48.846;9.230;2023-12-29T02:34:46;7.70;;;2.53;;
679;SDS011;322;48.846;9.230;2023-12-29T02:37:17;8.13;;;2.40;;
679;SDS011;322;48.846;9.230;2023-12-29T02:39:46;6.80;;;2.00;;
679;SDS011;322;48.846;9.230;2023-12-29T02:42:15;7.30;;;2.70;;
679;SDS011;322;48.846;9.230;2023-12-29T02:44:43;7.70;;;2.50;;
679;SDS011;322;48.846;9.230;2023-12-29T02:47:11;9.00;;;2.50;;
679;SDS011;322;48.846;9.230;2023-12-29T02:49:39;7.63;;;2.00;;
679;SDS011;322;48.846;9.230;2023-12-29T02:52:08;9.33;;;2.80;;
679;SDS011;322;48.846;9.230;2023-12-29T02:54:36;8.53;;;2.70;;
679;SDS011;322;48.846;9.230;2023-12-29T02:57:04;8.10;;;2.60;;
679;SDS011;322;48.846;9.230;2023-12-29T02:59:33;7.50;;;2.67;;
679;SDS011;322;48.846;9.230;2023-12-29T03:02:01;7.70;;;2.10;;
679;SDS011;322;48.846;9.230;2023-12-29T03:04:30;8.50;;;2.53;;
679;SDS011;322;48.846;9.230;2023-12-29T03:06:58;7.30;;;2.27;;
679;SDS011;322;48.846;9.230;2023-12-29T03:09:26;10.07;;;2.70;;
679;SDS011;322;48.846;9.230;2023-12-29T03:11:54;9.27;;;2.43;;
679;SDS011;322;48.846;9.230;2023-12-29T03:14:22;7.90;;;2.63;;
679;SDS011;322;48.846;9.230;2023-12-29T03:16:51;7.63;;;2.73;;
679;SDS011;322;48.846;9.230;2023-12-29T03:19:19;7.73;;;2.13;;
679;SDS011;322;48.846;9.230;2023-12-29T03:21:47;7.77;;;2.57;;
679;SDS011;322;48.846;9.230;2023-12-29T03:24:15;8.30;;;2.40;;
679;SDS011;322;48.846;9.230;2023-12-29T03:26:43;8.47;;;2.40;;
679;SDS011;322;48.846;9.230;2023-12-29T03:29:11;7.37;;;2.20;;
679;SDS011;322;48.846;9.230;2023-12-29T03:31:39;8.03;;;2.77;;
679;SDS011;322;48.846;9.230;2023-12-29T03:34:09;7.90;;;2.50;;
679;SDS011;322;48.846;9.230;2023-12-29T03:36:37;9.10;;;2.73;;
679;SDS011;322;48.846;9.230;2023-12-29T03:39:05;8.27;;;2.63;;
679;SDS011;322;48.846;9.230;2023-12-29T03:41:33;8.00;;;2.63;;
679;SDS011;322;48.846;9.230;2023-12-29T03:44:01;8.87;;;2.80;;
679;SDS011;322;48.846;9.230;2023-12-29T03:46:29;8.40;;;2.50;;
679;SDS011;322;48.846;9.230;2023-12-29T03:49:00;8.63;;;2.43;;
679;SDS011;322;48.846;9.230;2023-12-29T03:51:30;8.00;;;3.03;;
679;SDS011;322;48.846;9.230;2023-12-29T03:54:01;8.23;;;2.20;;
679;SDS011;322;48.846;9.230;2023-12-29T03:56:29;8.57;;;2.93;;
679;SDS011;322;48.846;9.230;2023-12-29T03:58:57;9.87;;;2.90;;
679;SDS011;322;48.846;9.230;2023-12-29T04:01:29;8.30;;;2.83;;
679;SDS011;322;48.846;9.230;2023-12-29T04:04:00;7.20;;;2.10;;
679;SDS011;322;48.846;9.230;2023-12-29T04:06:32;9.00;;;2.77;;
679;SDS011;322;48.846;9.230;2023-12-29T04:09:00;7.00;;;2.00;;
679;SDS011;322;48.846;9.230;2023-12-29T04:11:28;9.20;;;2.47;;
679;SDS011;322;48.846;9.230;2023-12-29T04:13:56;7.40;;;2.37;;
679;SDS011;322;48.846;9.230;2023-12-29T04:16:24;8.20;;;2.53;;
679;SDS011;322;48.846;9.230;2023-12-29T04:18:51;8.17;;;2.73;;
679;SDS011;322;48.846;9.230;2023-12-29T04:21:19;7.03;;;2.07;;
679;SDS011;322;48.846;9.230;2023-12-29T04:23:49;6.93;;;2.00;;
679;SDS011;322;48.846;9.230;2023-12-29T04:26:17;7.87;;;2.30;;
679;SDS011;322;48.846;9.230;2023-12-29T04:28:45;7.77;;;2.57;;
679;SDS011;322;48.846;9.230;2023-12-29T04:31:13;7.73;;;2.40;;
679;SDS011;322;48.846;9.230;2023-12-29T04:33:41;8.90;;;2.50;;
679;SDS011;322;48.846;9.230;2023-12-29T04:36:09;7.53;;;2.30;;
679;SDS011;322;48.846;9.230;2023-12-29T04:38:37;8.07;;;2.30;;
679;SDS011;322;48.846;9.230;2023-12-29T04:41:07;7.07;;;1.80;;
679;SDS011;322;48.846;9.230;2023-12-29T04:43:35;7.77;;;2.13;;
679;SDS011;322;48.846;9.230;2023-12-29T04:46:03;7.30;;;2.23;;
679;SDS011;322;48.846;9.230;2023-12-29T04:48:31;7.40;;;2.10;;
679;SDS011;322;48.846;9.230;2023-12-29T04:50:59;7.20;;;1.80;;
679;SDS011;322;48.846;9.230;2023-12-29T04:53:27;7.90;;;2.20;;
679;SDS011;322;48.846;9.230;2023-12-29T04:55:55;8.17;;;2.23;;
679;SDS011;322;48.846;9.230;2023-12-29T04:58:24;7.87;;;2.33;;
679;SDS011;322;48.846;9.230;2023-12-29T05:00:52;7.40;;;2.30;;
679;SDS011;322;48.846;9.230;2023-12-29T05:03:20;7.37;;;2.10;;
679;SDS011;322;48.846;9.230;2023-12-29T05:05:48;8.83;;;2.40;;
679;SDS011;322;48.846;9.230;2023-12-29T05:08:16;7.53;;;2.50;;
679;SDS011;322;48.846;9.230;2023-12-29T05:10:44;7.67;;;2.43;;
679;SDS011;322;48.846;9.230;2023-12-29T05:13:15;7.40;;;2.10;;
679;SDS011;322;48.846;9.230;2023-12-29T05:15:45;9.43;;;2.63;;
679;SDS011;322;48.846;9.230;2023-12-29T05:18:12;7.80;;;2.23;;
679;SDS011;322;48.846;9.230;2023-12-29T05:20:40;8.00;;;2.50;;
679;SDS011;322;48.846;9.230;2023-12-29T05:23:09;8.00;;;2.37;;
679;SDS011;322;48.846;9.230;2023-12-29T05:25:37;8.90;;;2.67;;
679;SDS011;322;48.846;9.230;2023-12-29T05:28:05;8.10;;;2.60;;
679;SDS011;322;48.846;9.230;2023-12-29T05:30:33;8.10;;;2.40;;
679;SDS011;322;48.846;9.230;2023-12-29T05:33:02;8.03;;;2.57;;
679;SDS011;322;48.846;9.230;2023-12-29T05:35:31;7.53;;;2.50;;
679;SDS011;322;48.846;9.230;2023-12-29T05:37:58;8.20;;;2.53;;
679;SDS011;322;48.846;9.230;2023-12-29T05:40:27;9.77;;;2.47;;
679;SDS011;322;48.846;9.230;2023-12-29T05:42:55;8.97;;;2.33;;
679;SDS011;322;48.846;9.230;2023-12-29T05:45:23;8.30;;;2.40;;
679;SDS011;322;48.846;9.230;2023-12-29T05:47:51;8.70;;;2.60;;
679;SDS011;322;48.846;9.230;2023-12-29T05:50:21;8.17;;;2.30;;
679;SDS011;322;48.846;9.230;2023-12-29T05:52:49;8.57;;;2.53;;
679;SDS011;322;48.846;9.230;2023-12-29T05:55:18;9.37;;;2.87;;
679;SDS011;322;48.846;9.230;2023-12-29T05:57:46;8.80;;;3.20;;
679;SDS011;322;48.846;9.230;2023-12-29T06:00:14;7.87;;;2.70;;
679;SDS011;322;48.846;9.230;2023-12-29T06:02:43;7.80;;;2.43;;
679;SDS011;322;48.846;9.230;2023-12-29T06:05:11;7.90;;;2.63;;
679;SDS011;322;48.846;9.230;2023-12-29T06:07:41;8.87;;;2.93;;
679;SDS011;322;48.846;9.230;2023-12-29T06:10:08;8.87;;;3.63;;
679;SDS011;322;48.846;9.230;2023-12-29T06:12:37;8.30;;;2.90;;
679;SDS011;322;48.846;9.230;2023-12-29T06:15:05;8.37;;;2.83;;
679;SDS011;322;48.846;9.230;2023-12-29T06:17:34;8.53;;;2.60;;
679;SDS011;322;48.846;9.230;2023-12-29T06:20:03;8.73;;;3.07;;
679;SDS011;322;48.846;9.230;2023-12-29T06:22:32;7.70;;;2.40;;
679;SDS011;322;48.846;9.230;2023-12-29T06:25:02;8.67;;;2.83;;
679;SDS011;322;48.846;9.230;2023-12-29T06:27:30;8.50;;;3.20;;
679;SDS011;322;48.846;9.230;2023-12-29T06:30:01;9.40;;;3.07;;
679;SDS011;322;48.846;9.230;2023-12-29T06:32:29;9.33;;;3.00;;
679;SDS011;322;48.846;9.230;2023-12-29T06:34:58;8.17;;;3.27;;
679;SDS011;322;48.846;9.230;2023-12-29T06:37:26;8.57;;;2.73;;
679;SDS011;322;48.846;9.230;2023-12-29T06:39:54;8.37;;;3.20;;
679;SDS011;322;48.846;9.230;2023-12-29T06:42:23;9.50;;;3.37;;
679;SDS011;322;48.846;9.230;2023-12-29T06:44:51;8.83;;;2.93;;
679;SDS011;322;48.846;9.230;2023-12-29T06:47:19;10.40;;;3.17;;
679;SDS011;322;48.846;9.230;2023-12-29T06:49:47;8.30;;;2.80;;
679;SDS011;322;48.846;9.230;2023-12-29T06:52:16;7.97;;;3.23;;
679;SDS011;322;48.846;9.230;2023-12-29T06:54:44;8.20;;;3.07;;
679;SDS011;322;48.846;9.230;2023-12-29T06:57:12;9.03;;;3.07;;
679;SDS011;322;48.846;9.230;2023-12-29T06:59:44;9.30;;;3.50;;
679;SDS011;322;48.846;9.230;2023-12-29T07:02:12;8.30;;;2.80;;
679;SDS011;322;48.846;9.230;2023-12-29T07:04:41;8.53;;;3.00;;
679;SDS011;322;48.846;9.230;2023-12-29T07:07:09;8.60;;;2.70;;
679;SDS011;322;48.846;9.230;2023-12-29T07:09:38;7.70;;;2.87;;
679;SDS011;322;48.846;9.230;2023-12-29T07:12:07;8.07;;;2.30;;
679;SDS011;322;48.846;9.230;2023-12-29T07:14:36;8.47;;;2.63;;
679;SDS011;322;48.846;9.230;2023-12-29T07:17:06;7.87;;;2.57;;
679;SDS011;322;48.846;9.230;2023-12-29T07:19:34;9.40;;;2.47;;
679;SDS011;322;48.846;9.230;2023-12-29T07:22:04;8.30;;;2.77;;
679;SDS011;322;48.846;9.230;2023-12-29T07:24:32;8.27;;;2.40;;
679;SDS011;322;48.846;9.230;2023-12-29T07:27:01;8.80;;;2.70;;
679;SDS011;322;48.846;9.230;2023-12-29T07:29:30;8.57;;;2.73;;
679;SDS011;322;48.846;9.230;2023-12-29T07:31:58;8.13;;;2.60;;
679;SDS011;322;48.846;9.230;2023-12-29T07:34:27;9.20;;;2.70;;
679;SDS011;322;48.846;9.230;2023-12-29T07:36:57;7.90;;;2.60;;
679;SDS011;322;48.846;9.230;2023-12-29T07:39:25;7.93;;;2.37;;
679;SDS011;322;48.846;9.230;2023-12-29T07:41:53;9.83;;;2.50;;
679;SDS011;322;48.846;9.230;2023-12-29T07:44:21;9.37;;;2.63;;
679;SDS011;322;48.846;9.230;2023-12-29T07:46:50;8.00;;;2.77;;
679;SDS011;322;48.846;9.230;2023-12-29T07:49:20;7.77;;;2.33;;
679;SDS011;322;48.846;9.230;2023-12-29T07:51:50;7.80;;;2.70;;
679;SDS011;322;48.846;9.230;2023-12-29T07:54:20;6.73;;;1.80;;
679;SDS011;322;48.846;9.230;2023-12-29T07:56:48;7.53;;;2.50;;
679;SDS011;322;48.846;9.230;2023-12-29T07:59:17;8.07;;;2.40;;
679;SDS011;322;48.846;9.230;2023-12-29T08:01:45;8.93;;;2.53;;
679;SDS011;322;48.846;9.230;2023-12-29T08:04:13;8.17;;;2.50;;
679;SDS011;322;48.846;9.230;2023-12-29T08:06:41;7.47;;;2.53;;
679;SDS011;322;48.846;9.230;2023-12-29T08:09:11;9.00;;;2.03;;
679;SDS011;322;48.846;9.230;2023-12-29T08:11:38;7.43;;;1.93;;
679;SDS011;322;48.846;9.230;2023-12-29T08:14:09;7.83;;;2.40;;
679;SDS011;322;48.846;9.230;2023-12-29T08:16:37;7.57;;;2.10;;
679;SDS011;322;48.846;9.230;2023-12-29T08:19:06;7.80;;;2.20;;
679;SDS011;322;48.846;9.230;2023-12-29T08:21:36;7.30;;;2.33;;
679;SDS011;322;48.846;9.230;2023-12-29T08:24:04;8.60;;;2.40;;
679;SDS011;322;48.846;9.230;2023-12-29T08:26:34;7.67;;;2.30;;
679;SDS011;322;48.846;9.230;2023-12-29T08:29:09;8.60;;;2.60;;
679;SDS011;322;48.846;9.230;2023-12-29T08:31:37;8.10;;;2.40;;
679;SDS011;322;48.846;9.230;2023-12-29T08:34:06;7.60;;;2.03;;
679;SDS011;322;48.846;9.230;2023-12-29T08:36:34;8.00;;;2.23;;
679;SDS011;322;48.846;9.230;2023-12-29T08:39:02;8.37;;;2.13;;
679;SDS011;322;48.846;9.230;2023-12-29T08:41:30;7.90;;;2.37;;
679;SDS011;322;48.846;9.230;2023-12-29T08:43:59;9.33;;;2.50;;
679;SDS011;322;48.846;9.230;2023-12-29T08:46:27;7.47;;;1.90;;
679;SDS011;322;48.846;9.230;2023-12-29T08:48:55;7.93;;;2.20;;
679;SDS011;322;48.846;9.230;2023-12-29T08:51:24;8.03;;;1.97;;
679;SDS011;322;48.846;9.230;2023-12-29T08:53:52;8.40;;;2.10;;
679;SDS011;322;48.846;9.230;2023-12-29T08:56:20;8.03;;;2.00;;
679;SDS011;322;48.846;9.230;2023-12-29T08:58:51;7.90;;;2.30;;
679;SDS011;322;48.846;9.230;2023-12-29T09:01:20;10.43;;;2.60;;
679;SDS011;322;48.846;9.230;2023-12-29T09:03:48;8.30;;;2.10;;
679;SDS011;322;48.846;9.230;2023-12-29T09:06:16;7.23;;;1.83;;
679;SDS011;322;48.846;9.230;2023-12-29T09:08:44;7.67;;;2.10;;
679;SDS011;322;48.846;9.230;2023-12-29T09:11:12;8.30;;;2.17;;
679;SDS011;322;48.846;9.230;2023-12-29T09:13:42;7.23;;;2.03;;
679;SDS011;322;48.846;9.230;2023-12-29T09:16:10;7.20;;;1.97;;
679;SDS011;322;48.846;9.230;2023-12-29T09:18:40;7.60;;;2.13;;
679;SDS011;322;48.846;9.230;2023-12-29T09:21:08;7.87;;;2.20;;
679;SDS011;322;48.846;9.230;2023-12-29T09:23:36;8.27;;;1.70;;
679;SDS011;322;48.846;9.230;2023-12-29T09:26:04;6.93;;;1.90;;
679;SDS011;322;48.846;9.230;2023-12-29T09:28:33;7.10;;;1.73;;
679;SDS011;322;48.846;9.230;2023-12-29T09:31:01;7.70;;;2.20;;
679;SDS011;322;48.846;9.230;2023-12-29T09:33:29;7.73;;;2.20;;
679;SDS011;322;48.846;9.230;2023-12-29T09:35:58;7.50;;;1.90;;
679;SDS011;322;48.846;9.230;2023-12-29T09:38:28;8.33;;;2.17;;
679;SDS011;322;48.846;9.230;2023-12-29T09:40:57;8.00;;;2.00;;
679;SDS011;322;48.846;9.230;2023-12-29T09:43:29;7.33;;;1.80;;
679;SDS011;322;48.846;9.230;2023-12-29T09:45:59;6.90;;;1.70;;
679;SDS011;322;48.846;9.230;2023-12-29T09:48:27;6.80;;;1.80;;
679;SDS011;322;48.846;9.230;2023-12-29T09:50:58;7.70;;;1.90;;
679;SDS011;322;48.846;9.230;2023-12-29T09:53:27;6.80;;;1.57;;
679;SDS011;322;48.846;9.230;2023-12-29T09:55:57;9.20;;;2.27;;
679;SDS011;322;48.846;9.230;2023-12-29T09:58:27;7.07;;;1.30;;
679;SDS011;322;48.846;9.230;2023-12-29T10:00:55;7.07;;;1.40;;
679;SDS011;322;48.846;9.230;2023-12-29T10:03:23;7.27;;;1.40;;
679;SDS011;322;48.846;9.230;2023-12-29T10:05:53;6.70;;;1.20;;
679;SDS011;322;48.846;9.230;2023-12-29T10:08:25;6.90;;;1.60;;
679;SDS011;322;48.846;9.230;2023-12-29T10:10:54;6.67;;;1.13;;
679;SDS011;322;48.846;9.230;2023-12-29T10:13:24;6.87;;;1.40;;
679;SDS011;322;48.846;9.230;2023-12-29T10:15:55;7.87;;;1.73;;
679;SDS011;322;48.846;9.230;2023-12-29T10:18:32;6.70;;;1.30;;
679;SDS011;322;48.846;9.230;2023-12-29T10:21:10;7.20;;;1.30;;
679;SDS011;322;48.846;9.230;2023-12-29T10:23:47;7.80;;;1.37;;
679;SDS011;322;48.846;9.230;2023-12-29T10:26:22;6.60;;;1.17;;
679;SDS011;322;48.846;9.230;2023-12-29T10:28:51;7.20;;;1.60;;
679;SDS011;322;48.846;9.230;2023-12-29T10:31:20;7.37;;;1.40;;
679;SDS011;322;48.846;9.230;2023-12-29T10:33:48;6.80;;;1.23;;
679;SDS011;322;48.846;9.230;2023-12-29T10:36:18;7.10;;;1.60;;
679;SDS011;322;48.846;9.230;2023-12-29T10:38:47;6.40;;;1.30;;
679;SDS011;322;48.846;9.230;2023-12-29T10:41:16;6.60;;;1.50;;
679;SDS011;322;48.846;9.230;2023-12-29T10:43:46;6.47;;;1.20;;
679;SDS011;322;48.846;9.230;2023-12-29T10:46:18;6.70;;;1.40;;
679;SDS011;322;48.846;9.230;2023-12-29T10:48:47;6.60;;;1.30;;
679;SDS011;322;48.846;9.230;2023-12-29T10:51:15;6.47;;;1.00;;
679;SDS011;322;48.846;9.230;2023-12-29T10:53:55;6.73;;;1.10;;
679;SDS011;322;48.846;9.230;2023-12-29T10:56:23;7.23;;;1.27;;
679;SDS011;322;48.846;9.230;2023-12-29T10:58:59;6.77;;;1.40;;
679;SDS011;322;48.846;9.230;2023-12-29T11:01:28;7.57;;;1.80;;
679;SDS011;322;48.846;9.230;2023-12-29T11:03:58;7.50;;;1.30;;
679;SDS011;322;48.846;9.230;2023-12-29T11:06:27;7.00;;;1.20;;
679;SDS011;322;48.846;9.230;2023-12-29T11:08:57;6.60;;;1.27;;
679;SDS011;322;48.846;9.230;2023-12-29T11:11:25;7.10;;;1.30;;
679;SDS011;322;48.846;9.230;2023-12-29T11:13:53;6.90;;;1.40;;
679;SDS011;322;48.846;9.230;2023-12-29T11:16:22;7.17;;;1.13;;
679;SDS011;322;48.846;9.230;2023-12-29T11:18:52;6.50;;;1.20;;
679;SDS011;322;48.846;9.230;2023-12-29T11:21:23;6.93;;;1.37;;
679;SDS011;322;48.846;9.230;2023-12-29T11:23:53;6.73;;;1.47;;
679;SDS011;322;48.846;9.230;2023-12-29T11:26:23;6.83;;;1.50;;
679;SDS011;322;48.846;9.230;2023-12-29T11:28:53;6.50;;;1.10;;
679;SDS011;322;48.846;9.230;2023-12-29T11:31:22;6.53;;;1.40;;
679;SDS011;322;48.846;9.230;2023-12-29T11:33:53;6.90;;;1.23;;
679;SDS011;322;48.846;9.230;2023-12-29T11:36:28;6.00;;;0.90;;
679;SDS011;322;48.846;9.230;2023-12-29T11:39:02;6.33;;;0.90;;
679;SDS011;322;48.846;9.230;2023-12-29T11:41:37;7.43;;;1.37;;
679;SDS011;322;48.846;9.230;2023-12-29T11:44:08;6.30;;;0.90;;
679;SDS011;322;48.846;9.230;2023-12-29T11:46:37;6.00;;;0.93;;
679;SDS011;322;48.846;9.230;2023-12-29T11:49:06;7.40;;;0.97;;
679;SDS011;322;48.846;9.230;2023-12-29T11:51:35;6.87;;;1.00;;
679;SDS011;322;48.846;9.230;2023-12-29T11:54:04;5.97;;;0.90;;
679;SDS011;322;48.846;9.230;2023-12-29T11:56:37;6.70;;;0.90;;
679;SDS011;322;48.846;9.230;2023-12-29T11:59:13;6.30;;;0.90;;
679;SDS011;322;48.846;9.230;2023-12-29T12:01:41;6.20;;;0.90;;
679;SDS011;322;48.846;9.230;2023-12-29T12:07:03;6.07;;;1.00;;
679;SDS011;322;48.846;9.230;2023-12-29T12:09:33;6.10;;;0.93;;
679;SDS011;322;48.846;9.230;2023-12-29T12:12:03;6.57;;;0.97;;
679;SDS011;322;48.846;9.230;2023-12-29T12:14:45;6.40;;;1.00;;
679;SDS011;322;48.846;9.230;2023-12-29T12:17:26;5.80;;;0.70;;
679;SDS011;322;48.846;9.230;2023-12-29T12:19:56;8.17;;;0.87;;
679;SDS011;322;48.846;9.230;2023-12-29T12:22:25;6.27;;;0.90;;
679;SDS011;322;48.846;9.230;2023-12-29T12:24:56;6.50;;;1.13;;
679;SDS011;322;48.846;9.230;2023-12-29T12:27:27;5.90;;;0.70;;
679;SDS011;322;48.846;9.230;2023-12-29T12:29:55;6.97;;;1.30;;
679;SDS011;322;48.846;9.230;2023-12-29T12:32:26;6.50;;;1.10;;
679;SDS011;322;48.846;9.230;2023-12-29T12:34:55;8.53;;;1.27;;
679;SDS011;322;48.846;9.230;2023-12-29T12:37:24;6.43;;;1.20;;
679;SDS011;322;48.846;9.230;2023-12-29T12:39:54;6.40;;;0.90;;
679;SDS011;322;48.846;9.230;2023-12-29T12:42:22;7.00;;;1.00;;
679;SDS011;322;48.846;9.230;2023-12-29T12:44:55;6.20;;;0.93;;
679;SDS011;322;48.846;9.230;2023-12-29T12:47:32;6.67;;;1.47;;
679;SDS011;322;48.846;9.230;2023-12-29T12:50:02;7.40;;;1.37;;
679;SDS011;322;48.846;9.230;2023-12-29T12:52:32;6.17;;;1.17;;
679;SDS011;322;48.846;9.230;2023-12-29T12:55:02;6.20;;;1.17;;
679;SDS011;322;48.846;9.230;2023-12-29T12:57:31;6.20;;;1.10;;
679;SDS011;322;48.846;9.230;2023-12-29T13:00:02;7.00;;;1.40;;
679;SDS011;322;48.846;9.230;2023-12-29T13:02:32;6.40;;;1.37;;
679;SDS011;322;48.846;9.230;2023-12-29T13:05:01;6.60;;;1.50;;
679;SDS011;322;48.846;9.230;2023-12-29T13:07:34;6.60;;;1.30;;
679;SDS011;322;48.846;9.230;2023-12-29T13:10:03;7.30;;;1.40;;
679;SDS011;322;48.846;9.230;2023-12-29T13:12:31;6.03;;;1.27;;
679;SDS011;322;48.846;9.230;2023-12-29T13:15:06;6.60;;;1.20;;
679;SDS011;322;48.846;9.230;2023-12-29T13:17:35;8.00;;;1.40;;
679;SDS011;322;48.846;9.230;2023-12-29T13:20:03;6.37;;;1.20;;
679;SDS011;322;48.846;9.230;2023-12-29T13:22:33;5.80;;;0.90;;
679;SDS011;322;48.846;9.230;2023-12-29T13:25:01;6.80;;;1.37;;
679;SDS011;322;48.846;9.230;2023-12-29T13:27:33;6.30;;;1.20;;
679;SDS011;322;48.846;9.230;2023-12-29T13:30:07;6.40;;;1.13;;
679;SDS011;322;48.846;9.230;2023-12-29T13:32:35;6.40;;;1.10;;
679;SDS011;322;48.846;9.230;2023-12-29T13:35:06;7.40;;;1.10;;
679;SDS011;322;48.846;9.230;2023-12-29T13:37:42;6.80;;;1.30;;
679;SDS011;322;48.846;9.230;2023-12-29T13:40:16;9.10;;;1.90;;
679;SDS011;322;48.846;9.230;2023-12-29T13:42:54;6.40;;;1.10;;
679;SDS011;322;48.846;9.230;2023-12-29T13:45:26;6.30;;;1.30;;
679;SDS011;322;48.846;9.230;2023-12-29T13:47:55;8.03;;;1.33;;
679;SDS011;322;48.846;9.230;2023-12-29T13:50:25;6.87;;;1.20;;
679;SDS011;322;48.846;9.230;2023-12-29T13:52:53;7.60;;;1.30;;
679;SDS011;322;48.846;9.230;2023-12-29T13:55:23;7.17;;;1.47;;
679;SDS011;322;48.846;9.230;2023-12-29T13:57:52;6.90;;;1.47;;
679;SDS011;322;48.846;9.230;2023-12-29T14:00:21;7.40;;;1.73;;
679;SDS011;322;48.846;9.230;2023-12-29T14:03:01;6.60;;;1.30;;
679;SDS011;322;48.846;9.230;2023-12-29T14:05:35;7.13;;;1.30;;
679;SDS011;322;48.846;9.230;2023-12-29T14:08:08;6.63;;;1.30;;
679;SDS011;322;48.846;9.230;2023-12-29T14:10:44;6.37;;;1.13;;
679;SDS011;322;48.846;9.230;2023-12-29T14:13:13;6.00;;;0.87;;
679;SDS011;322;48.846;9.230;2023-12-29T14:15:43;7.03;;;1.37;;
679;SDS011;322;48.846;9.230;2023-12-29T14:18:25;6.83;;;1.40;;
679;SDS011;322;48.846;9.230;2023-12-29T14:21:20;12.43;;;1.30;;
679;SDS011;322;48.846;9.230;2023-12-29T14:23:57;6.27;;;1.10;;
679;SDS011;322;48.846;9.230;2023-12-29T14:26:30;7.13;;;1.30;;
679;SDS011;322;48.846;9.230;2023-12-29T14:29:01;6.40;;;0.97;;
679;SDS011;322;48.846;9.230;2023-12-29T14:31:31;7.03;;;1.13;;
679;SDS011;322;48.846;9.230;2023-12-29T14:34:04;6.43;;;1.10;;
679;SDS011;322;48.846;9.230;2023-12-29T14:36:33;6.20;;;0.97;;
679;SDS011;322;48.846;9.230;2023-12-29T14:39:02;6.50;;;1.30;;
679;SDS011;322;48.846;9.230;2023-12-29T14:41:30;6.23;;;1.20;;
679;SDS011;322;48.846;9.230;2023-12-29T14:43:59;6.70;;;1.17;;
679;SDS011;322;48.846;9.230;2023-12-29T14:46:27;11.20;;;1.70;;
679;SDS011;322;48.846;9.230;2023-12-29T14:48:56;6.43;;;0.93;;
679;SDS011;322;48.846;9.230;2023-12-29T14:51:26;6.07;;;1.10;;
679;SDS011;322;48.846;9.230;2023-12-29T14:53:54;6.50;;;1.23;;
679;SDS011;322;48.846;9.230;2023-12-29T14:56:22;6.30;;;1.10;;
679;SDS011;322;48.846;9.230;2023-12-29T14:58:50;6.30;;;0.87;;
679;SDS011;322;48.846;9.230;2023-12-29T15:01:18;6.20;;;1.07;;
679;SDS011;322;48.846;9.230;2023-12-29T15:03:46;6.20;;;0.90;;
679;SDS011;322;48.846;9.230;2023-12-29T15:06:14;8.30;;;1.00;;
679;SDS011;322;48.846;9.230;2023-12-29T15:08:43;6.50;;;1.30;;
679;SDS011;322;48.846;9.230;2023-12-29T15:11:12;7.93;;;1.37;;
679;SDS011;322;48.846;9.230;2023-12-29T15:13:39;6.60;;;1.17;;
679;SDS011;322;48.846;9.230;2023-12-29T15:16:06;7.07;;;1.63;;
679;SDS011;322;48.846;9.230;2023-12-29T15:18:36;7.03;;;1.20;;
679;SDS011;322;48.846;9.230;2023-12-29T15:21:04;7.13;;;1.20;;
679;SDS011;322;48.846;9.230;2023-12-29T15:23:32;7.70;;;2.23;;
679;SDS011;322;48.846;9.230;2023-12-29T15:26:01;7.13;;;1.40;;
679;SDS011;322;48.846;9.230;2023-12-29T15:28:29;6.63;;;1.27;;
679;SDS011;322;48.846;9.230;2023-12-29T15:30:57;6.50;;;1.10;;
679;SDS011;322;48.846;9.230;2023-12-29T15:33:26;6.40;;;1.10;;
679;SDS011;322;48.846;9.230;2023-12-29T15:35:54;6.63;;;1.10;;
679;SDS011;322;48.846;9.230;2023-12-29T15:38:23;6.23;;;1.23;;
679;SDS011;322;48.846;9.230;2023-12-29T15:40:51;6.23;;;1.17;;
679;SDS011;322;48.846;9.230;2023-12-29T15:43:21;6.90;;;1.30;;
679;SDS011;322;48.846;9.230;2023-12-29T15:45:50;7.00;;;1.17;;
679;SDS011;322;48.846;9.230;2023-12-29T15:48:18;9.10;;;1.13;;
679;SDS011;322;48.846;9.230;2023-12-29T15:50:46;6.30;;;1.03;;
679;SDS011;322;48.846;9.230;2023-12-29T15:53:14;6.40;;;1.30;;
679;SDS011;322;48.846;9.230;2023-12-29T15:55:45;6.50;;;1.20;;
679;SDS011;322;48.846;9.230;2023-12-29T15:58:13;6.63;;;1.27;;
679;SDS011;322;48.846;9.230;2023-12-29T16:00:42;6.63;;;0.97;;
679;SDS011;322;48.846;9.230;2023-12-29T16:03:11;6.20;;;0.93;;